createdAt,value
2023-05-19T00:00:04.793Z,0.77
2023-05-19T00:02:39.697Z,0.43
2023-05-19T00:05:08.409Z,0.70
2023-05-19T00:07:37.461Z,0.68
2023-05-19T00:10:06.078Z,0.20
2023-05-19T00:12:35.183Z,0.63
2023-05-19T00:15:03.284Z,0.60
2023-05-19T00:17:30.964Z,0.70
2023-05-19T00:19:58.653Z,0.60
2023-05-19T00:22:26.346Z,0.10
2023-05-19T00:24:53.867Z,0.85
2023-05-19T00:27:21.393Z,0.20
2023-05-19T00:29:50.258Z,0.77
2023-05-19T00:32:17.913Z,0.60
2023-05-19T00:34:47.757Z,0.73
2023-05-19T00:37:15.492Z,0.47
2023-05-19T00:39:43.315Z,1.17
2023-05-19T00:42:10.958Z,0.70
2023-05-19T00:44:41.752Z,0.70
2023-05-19T00:47:10.854Z,0.65
2023-05-19T00:49:38.476Z,0.82
2023-05-19T00:52:07.311Z,0.60
2023-05-19T00:54:35.855Z,0.55
2023-05-19T00:57:04.245Z,0.65
2023-05-19T00:59:31.879Z,0.57
2023-05-19T01:01:59.478Z,0.20
2023-05-19T01:04:29.750Z,0.50
2023-05-19T01:06:57.669Z,0.63
2023-05-19T01:09:25.324Z,0.70
2023-05-19T01:11:53.379Z,0.73
2023-05-19T01:14:21.476Z,0.60
2023-05-19T01:16:56.540Z,0.82
2023-05-19T01:19:46.841Z,0.50
2023-05-19T01:22:22.916Z,0.57
2023-05-19T01:25:19.938Z,0.63
2023-05-19T01:28:17.024Z,0.60
2023-05-19T01:30:46.608Z,0.57
2023-05-19T01:33:15.648Z,0.68
2023-05-19T01:35:44.183Z,0.57
2023-05-19T01:38:13.284Z,0.60
2023-05-19T01:40:42.499Z,0.65
2023-05-19T01:43:11.787Z,0.88
2023-05-19T01:45:39.550Z,0.75
2023-05-19T01:48:11.104Z,0.20
2023-05-19T01:53:07.407Z,0.47
2023-05-19T01:55:35.557Z,1.02
2023-05-19T01:58:08.477Z,0.68
2023-05-19T02:00:45.634Z,0.73
2023-05-19T02:03:26.823Z,0.52
2023-05-19T02:05:57.231Z,0.65
2023-05-19T02:08:28.270Z,0.68
2023-05-19T02:11:01.856Z,0.60
2023-05-19T02:13:32.641Z,0.17
2023-05-19T02:16:05.181Z,0.60
2023-05-19T02:18:35.349Z,0.95
2023-05-19T02:21:02.955Z,0.52
2023-05-19T02:23:30.538Z,0.77
2023-05-19T02:25:58.304Z,0.60
2023-05-19T02:28:28.402Z,0.70
2023-05-19T02:30:56.013Z,0.20
2023-05-19T02:33:25.973Z,0.75
2023-05-19T02:35:54.937Z,0.65
2023-05-19T02:38:22.497Z,0.65
2023-05-19T02:40:50.046Z,0.20
2023-05-19T02:43:17.593Z,0.75
2023-05-19T02:45:45.719Z,0.70
2023-05-19T02:48:13.396Z,0.70
2023-05-19T02:50:41.053Z,0.75
2023-05-19T02:53:10.042Z,0.88
2023-05-19T02:55:37.617Z,0.50
2023-05-19T02:58:05.288Z,0.60
2023-05-19T03:00:33.130Z,0.65
2023-05-19T03:03:02.950Z,0.40
2023-05-19T03:05:31.112Z,0.50
2023-05-19T03:07:58.696Z,0.63
2023-05-19T03:10:27.536Z,0.82
2023-05-19T03:12:55.138Z,0.55
2023-05-19T03:15:23.527Z,0.73
2023-05-19T03:17:51.949Z,0.70
2023-05-19T03:20:19.820Z,0.60
2023-05-19T03:22:47.421Z,0.82
2023-05-19T03:25:15.015Z,0.80
2023-05-19T03:27:44.331Z,0.75
2023-05-19T03:30:13.434Z,0.20
2023-05-19T03:32:54.168Z,0.80
2023-05-19T03:35:22.206Z,0.65
2023-05-19T03:37:50.093Z,0.65
2023-05-19T03:40:18.835Z,0.30
2023-05-19T03:42:47.945Z,0.55
2023-05-19T03:45:15.628Z,0.60
2023-05-19T03:47:47.196Z,0.73
2023-05-19T03:50:48.537Z,0.63
2023-05-19T03:53:20.748Z,0.43
2023-05-19T03:55:49.541Z,0.68
2023-05-19T03:58:18.852Z,0.60
2023-05-19T04:00:46.538Z,0.80
2023-05-19T04:03:15.240Z,0.75
2023-05-19T04:05:42.959Z,0.60
2023-05-19T04:08:10.523Z,0.63
2023-05-19T04:10:38.157Z,0.20
2023-05-19T04:13:05.853Z,0.60
2023-05-19T04:15:34.900Z,0.70
2023-05-19T04:18:02.608Z,1.25
2023-05-19T04:20:31.003Z,0.75
2023-05-19T04:22:58.676Z,0.88
2023-05-19T04:25:28.209Z,0.90
2023-05-19T04:27:57.822Z,0.47
2023-05-19T04:30:26.208Z,0.60
2023-05-19T04:32:55.315Z,0.70
2023-05-19T04:35:23.440Z,0.82
2023-05-19T04:37:54.282Z,0.60
2023-05-19T04:40:26.203Z,0.73
2023-05-19T04:42:54.180Z,0.63
2023-05-19T04:45:23.252Z,0.55
2023-05-19T04:47:58.611Z,0.50
2023-05-19T04:50:26.209Z,0.88
2023-05-19T04:52:53.898Z,0.52
2023-05-19T04:55:21.863Z,0.65
2023-05-19T04:57:50.719Z,0.60
2023-05-19T05:00:21.644Z,0.75
2023-05-19T05:03:00.835Z,0.10
2023-05-19T05:05:30.702Z,0.70
2023-05-19T05:07:58.553Z,0.60
2023-05-19T05:10:28.915Z,0.65
2023-05-19T05:12:57.459Z,0.82
2023-05-19T05:15:28.569Z,0.70
2023-05-19T05:17:57.687Z,0.70
2023-05-19T05:20:28.522Z,0.98
2023-05-19T05:22:57.683Z,1.15
2023-05-19T05:25:26.772Z,0.45
2023-05-19T05:27:54.524Z,0.63
2023-05-19T05:30:22.125Z,0.80
2023-05-19T05:32:50.443Z,0.30
2023-05-19T05:35:46.680Z,0.80
2023-05-19T05:38:15.253Z,0.65
2023-05-19T05:40:43.153Z,0.57
2023-05-19T05:43:10.948Z,0.70
2023-05-19T05:45:45.271Z,0.68
2023-05-19T05:48:13.596Z,0.70
2023-05-19T05:50:41.628Z,0.20
2023-05-19T05:53:13.917Z,0.68
2023-05-19T05:55:42.519Z,0.73
2023-05-19T05:58:11.130Z,0.63
2023-05-19T06:00:38.933Z,0.60
2023-05-19T06:03:06.601Z,0.60
2023-05-19T06:05:34.357Z,0.70
2023-05-19T06:08:02.259Z,0.55
2023-05-19T06:10:32.440Z,0.75
2023-05-19T06:13:00.403Z,0.60
2023-05-19T06:15:28.103Z,0.20
2023-05-19T06:18:01.812Z,0.45
2023-05-19T06:20:30.045Z,0.73
2023-05-19T06:22:58.485Z,0.80
2023-05-19T06:25:27.882Z,0.57
2023-05-19T06:27:57.726Z,0.20
2023-05-19T06:30:25.665Z,0.80
2023-05-19T06:33:13.484Z,0.70
2023-05-19T06:35:41.137Z,0.80
2023-05-19T06:38:08.825Z,0.60
2023-05-19T06:40:37.155Z,0.50
2023-05-19T06:43:06.144Z,0.63
2023-05-19T06:45:54.370Z,0.70
2023-05-19T06:48:23.264Z,0.65
2023-05-19T06:50:51.681Z,0.50
2023-05-19T06:53:21.049Z,0.52
2023-05-19T06:55:58.561Z,0.70
2023-05-19T06:58:29.786Z,1.00
2023-05-19T07:00:58.252Z,0.20
2023-05-19T07:03:30.977Z,0.63
2023-05-19T07:05:59.561Z,0.70
2023-05-19T07:08:27.951Z,0.70
2023-05-19T07:10:56.287Z,0.52
2023-05-19T07:13:25.967Z,0.70
2023-05-19T07:15:56.641Z,0.50
2023-05-19T07:18:25.389Z,0.40
2023-05-19T07:20:53.189Z,0.93
2023-05-19T07:23:21.630Z,0.60
2023-05-19T07:25:49.213Z,0.70
2023-05-19T07:28:16.773Z,0.70
2023-05-19T07:30:44.566Z,0.10
2023-05-19T07:33:13.577Z,0.65
2023-05-19T07:35:41.224Z,0.57
2023-05-19T07:38:09.005Z,0.57
2023-05-19T07:40:36.553Z,0.75
2023-05-19T07:43:04.184Z,0.68
2023-05-19T07:45:31.771Z,0.60
2023-05-19T07:47:59.440Z,0.73
2023-05-19T07:50:28.388Z,0.68
2023-05-19T07:52:56.051Z,0.50
2023-05-19T07:55:23.763Z,0.43
2023-05-19T07:57:51.399Z,0.60
2023-05-19T08:00:19.429Z,0.40
2023-05-19T08:02:47.327Z,0.70
2023-05-19T08:05:15.000Z,0.60
2023-05-19T08:07:43.866Z,0.47
2023-05-19T08:10:11.519Z,0.52
2023-05-19T08:12:39.107Z,0.68
2023-05-19T08:15:07.461Z,0.50
2023-05-19T08:17:35.140Z,0.10
2023-05-19T08:20:03.964Z,0.50
2023-05-19T08:22:31.528Z,0.50
2023-05-19T08:25:01.359Z,0.40
2023-05-19T08:27:28.968Z,0.80
2023-05-19T08:29:57.297Z,0.52
2023-05-19T08:32:25.032Z,0.50
2023-05-19T08:34:52.961Z,0.40
2023-05-19T08:37:20.609Z,0.52
2023-05-19T08:39:48.190Z,0.47
2023-05-19T08:42:17.210Z,0.10
2023-05-19T08:44:44.818Z,0.68
2023-05-19T08:47:13.942Z,0.60
2023-05-19T08:49:45.142Z,0.55
2023-05-19T08:52:20.938Z,0.50
2023-05-19T08:54:53.268Z,0.63
2023-05-19T08:59:50.182Z,0.40
2023-05-19T09:02:17.778Z,0.10
2023-05-19T09:04:47.995Z,0.50
2023-05-19T09:07:15.915Z,0.10
2023-05-19T09:09:44.070Z,0.32
2023-05-19T09:12:12.097Z,0.43
2023-05-19T09:14:41.191Z,0.45
2023-05-19T09:17:08.955Z,0.60
2023-05-19T09:19:36.648Z,0.73
2023-05-19T09:22:04.784Z,0.50
2023-05-19T09:24:32.984Z,0.35
2023-05-19T09:27:00.637Z,0.45
2023-05-19T09:29:28.464Z,0.45
2023-05-19T09:32:01.068Z,0.40
2023-05-19T09:34:29.004Z,0.50
2023-05-19T09:36:57.835Z,0.30
2023-05-19T09:39:25.909Z,0.50
2023-05-19T09:41:54.800Z,0.47
2023-05-19T09:44:24.054Z,0.60
2023-05-19T09:46:53.306Z,0.50
2023-05-19T09:49:23.895Z,0.10
2023-05-19T09:51:52.249Z,0.10
2023-05-19T09:54:21.485Z,0.40
2023-05-19T09:56:53.036Z,0.40
2023-05-19T09:59:21.237Z,0.55
2023-05-19T10:01:49.639Z,0.32
2023-05-19T10:04:17.700Z,0.32
2023-05-19T10:06:47.482Z,0.50
2023-05-19T10:09:15.941Z,0.40
2023-05-19T10:11:44.409Z,0.52
2023-05-19T10:14:12.019Z,0.50
2023-05-19T10:16:39.756Z,0.50
2023-05-19T10:19:08.860Z,0.43
2023-05-19T10:21:36.505Z,0.40
2023-05-19T10:24:05.643Z,0.30
2023-05-19T10:26:33.700Z,0.35
2023-05-19T10:29:01.922Z,0.55
2023-05-19T10:31:29.765Z,0.60
2023-05-19T10:34:13.455Z,0.52
2023-05-19T10:36:46.501Z,0.38
2023-05-19T10:39:19.282Z,0.43
2023-05-19T10:41:48.670Z,0.10
2023-05-19T10:44:22.313Z,0.40
2023-05-19T10:46:50.570Z,0.32
2023-05-19T10:49:21.801Z,0.30
2023-05-19T10:51:49.690Z,0.55
2023-05-19T10:54:20.947Z,0.38
2023-05-19T10:56:48.538Z,0.32
2023-05-19T10:59:33.440Z,0.40
2023-05-19T11:02:04.712Z,0.50
2023-05-19T11:04:51.165Z,0.32
2023-05-19T11:07:21.540Z,0.10
2023-05-19T11:09:52.693Z,0.40
2023-05-19T11:12:25.391Z,0.38
2023-05-19T11:14:53.558Z,0.40
2023-05-19T11:17:23.580Z,0.32
2023-05-19T11:19:55.510Z,0.60
2023-05-19T11:22:25.594Z,0.40
2023-05-19T11:24:56.063Z,0.30
2023-05-19T11:27:31.176Z,0.50
2023-05-19T11:30:00.507Z,0.50
2023-05-19T11:32:33.361Z,0.00
2023-05-19T11:35:01.258Z,0.32
2023-05-19T11:37:29.606Z,0.50
2023-05-19T11:39:58.954Z,0.40
2023-05-19T11:42:26.484Z,0.30
2023-05-19T11:44:57.539Z,0.30
2023-05-19T11:47:25.137Z,0.40
2023-05-19T11:49:52.880Z,0.40
2023-05-19T11:52:24.461Z,0.50
2023-05-19T11:54:52.417Z,0.38
2023-05-19T11:57:21.304Z,0.57
2023-05-19T11:59:49.794Z,0.32
2023-05-19T12:02:18.937Z,0.00
2023-05-19T12:04:47.264Z,0.40
2023-05-19T12:07:17.540Z,0.40
2023-05-19T12:09:45.772Z,0.40
2023-05-19T12:12:14.605Z,0.30
2023-05-19T12:14:43.828Z,0.32
2023-05-19T12:17:13.157Z,0.30
2023-05-19T12:19:41.155Z,0.30
2023-05-19T12:22:09.246Z,0.30
2023-05-19T12:24:37.888Z,0.40
2023-05-19T12:27:12.437Z,0.35
2023-05-19T12:29:40.490Z,0.30
2023-05-19T12:32:10.670Z,0.30
2023-05-19T12:34:39.080Z,0.68
2023-05-19T12:37:07.024Z,0.45
2023-05-19T12:39:34.679Z,0.40
2023-05-19T12:42:03.344Z,0.30
2023-05-19T12:44:31.425Z,0.43
2023-05-19T12:46:59.390Z,0.40
2023-05-19T12:49:28.318Z,0.40
2023-05-19T12:51:55.891Z,0.40
2023-05-19T12:54:23.600Z,0.30
2023-05-19T12:56:52.143Z,0.38
2023-05-19T12:59:34.646Z,0.40
2023-05-19T13:02:06.299Z,0.43
2023-05-19T13:04:36.200Z,0.50
2023-05-19T13:07:03.890Z,0.30
2023-05-19T13:09:38.067Z,0.40
2023-05-19T13:12:06.522Z,0.50
2023-05-19T13:14:34.205Z,0.30
2023-05-19T13:17:01.870Z,0.38
2023-05-19T13:19:30.027Z,0.40
2023-05-19T13:21:59.862Z,0.50
2023-05-19T13:24:27.421Z,0.30
2023-05-19T13:26:55.982Z,0.30
2023-05-19T13:29:23.868Z,0.40
2023-05-19T13:31:51.642Z,0.50
2023-05-19T13:34:19.718Z,0.40
2023-05-19T13:36:48.895Z,0.30
2023-05-19T13:39:17.837Z,0.05
2023-05-19T13:41:45.376Z,0.40
2023-05-19T13:44:12.961Z,0.45
2023-05-19T13:46:45.699Z,0.40
2023-05-19T13:49:14.047Z,0.40
2023-05-19T13:51:43.652Z,0.30
2023-05-19T13:54:11.369Z,0.40
2023-05-19T13:56:40.524Z,0.40
2023-05-19T13:59:08.260Z,0.50
2023-05-19T14:01:35.901Z,0.40
2023-05-19T14:04:03.552Z,0.40
2023-05-19T14:06:32.100Z,0.35
2023-05-19T14:08:59.657Z,0.38
2023-05-19T14:11:27.216Z,0.40
2023-05-19T14:13:56.110Z,0.35
2023-05-19T14:16:26.132Z,0.40
2023-05-19T14:18:54.071Z,0.47
2023-05-19T14:21:21.618Z,0.10
2023-05-19T14:23:49.260Z,0.38
2023-05-19T14:26:16.956Z,0.35
2023-05-19T14:28:44.492Z,0.40
2023-05-19T14:31:13.632Z,0.38
2023-05-19T14:33:41.302Z,0.45
2023-05-19T14:36:09.155Z,0.32
2023-05-19T14:38:36.919Z,0.40
2023-05-19T14:41:04.780Z,0.30
2023-05-19T14:43:32.292Z,0.30
2023-05-19T14:46:00.063Z,0.40
2023-05-19T14:48:28.969Z,0.38
2023-05-19T14:50:56.469Z,0.65
2023-05-19T14:53:24.052Z,0.30
2023-05-19T14:55:51.636Z,0.50
2023-05-19T14:58:27.576Z,0.32
2023-05-19T15:00:58.635Z,0.10
2023-05-19T15:03:26.310Z,0.40
2023-05-19T15:05:55.227Z,0.38
2023-05-19T15:08:23.429Z,0.40
2023-05-19T15:10:51.299Z,0.85
2023-05-19T15:13:19.149Z,0.30
2023-05-19T15:15:46.685Z,0.32
2023-05-19T15:18:16.282Z,0.40
2023-05-19T15:20:46.423Z,0.40
2023-05-19T15:23:15.816Z,0.43
2023-05-19T15:25:51.205Z,0.10
2023-05-19T15:28:18.971Z,0.10
2023-05-19T15:30:46.546Z,0.10
2023-05-19T15:33:14.239Z,0.10
2023-05-19T15:35:41.866Z,0.10
2023-05-19T15:38:09.415Z,0.10
2023-05-19T15:40:36.962Z,0.17
2023-05-19T15:43:05.816Z,0.30
2023-05-19T15:45:33.367Z,0.10
2023-05-19T15:48:01.576Z,0.08
2023-05-19T15:50:29.213Z,0.10
2023-05-19T15:52:56.774Z,0.13
2023-05-19T15:55:24.295Z,0.10
2023-05-19T15:57:51.830Z,0.15
2023-05-19T16:00:21.013Z,0.10
2023-05-19T16:02:48.654Z,0.10
2023-05-19T16:05:16.736Z,0.10
2023-05-19T16:07:44.325Z,0.10
2023-05-19T16:10:12.005Z,0.20
2023-05-19T16:12:39.628Z,0.10
2023-05-19T16:15:08.216Z,0.10
2023-05-19T16:17:37.294Z,0.10
2023-05-19T16:20:05.500Z,0.10
2023-05-19T16:22:33.038Z,0.13
2023-05-19T16:25:00.661Z,0.10
2023-05-19T16:27:28.161Z,0.10
2023-05-19T16:29:56.504Z,0.10
2023-05-19T16:32:24.165Z,0.10
2023-05-19T16:34:53.132Z,0.10
2023-05-19T16:37:20.898Z,0.10
2023-05-19T16:39:48.708Z,0.10
2023-05-19T16:42:16.327Z,0.10
2023-05-19T16:44:43.970Z,0.15
2023-05-19T16:47:11.481Z,0.10
2023-05-19T16:49:40.416Z,0.10
2023-05-19T16:52:09.276Z,0.10
2023-05-19T16:54:36.896Z,0.10
2023-05-19T16:57:04.759Z,0.10
2023-05-19T16:59:32.272Z,0.10
2023-05-19T17:01:59.853Z,0.10
2023-05-19T17:04:29.400Z,0.10
2023-05-19T17:06:58.276Z,0.10
2023-05-19T17:09:27.222Z,0.00
2023-05-19T17:11:54.952Z,0.10
2023-05-19T17:14:23.045Z,0.10
2023-05-19T17:16:52.390Z,0.10
2023-05-19T17:19:20.079Z,0.10
2023-05-19T17:21:47.672Z,0.30
2023-05-19T17:24:15.249Z,0.10
2023-05-19T17:26:44.128Z,0.15
2023-05-19T17:29:13.634Z,0.20
2023-05-19T17:31:41.430Z,0.08
2023-05-19T17:34:09.114Z,0.10
2023-05-19T17:36:36.718Z,0.20
2023-05-19T17:39:04.323Z,0.10
2023-05-19T17:41:31.897Z,0.10
2023-05-19T17:44:00.915Z,0.10
2023-05-19T17:46:30.197Z,0.10
2023-05-19T17:48:57.784Z,0.08
2023-05-19T17:51:25.881Z,0.17
2023-05-19T17:53:54.016Z,0.20
2023-05-19T17:56:23.056Z,0.13
2023-05-19T17:58:51.118Z,0.10
2023-05-19T18:01:23.756Z,0.10
2023-05-19T18:03:51.907Z,0.10
2023-05-19T18:06:20.202Z,0.10
2023-05-19T18:08:50.521Z,0.15
2023-05-19T18:11:19.091Z,0.10
2023-05-19T18:13:46.637Z,0.10
2023-05-19T18:16:14.236Z,0.10
2023-05-19T18:18:44.622Z,0.17
2023-05-19T18:21:14.323Z,0.20
2023-05-19T18:23:42.268Z,0.10
2023-05-19T18:26:11.321Z,0.10
2023-05-19T18:28:38.984Z,0.10
2023-05-19T18:31:07.953Z,0.10
2023-05-19T18:33:35.484Z,0.10
2023-05-19T18:36:04.813Z,0.20
2023-05-19T18:38:32.459Z,0.00
2023-05-19T18:41:00.759Z,0.20
2023-05-19T18:43:30.088Z,0.20
2023-05-19T18:45:58.231Z,0.10
2023-05-19T18:48:26.908Z,0.10
2023-05-19T18:50:54.654Z,0.15
2023-05-19T18:53:23.676Z,0.15
2023-05-19T18:55:51.221Z,0.10
2023-05-19T18:58:19.203Z,0.10
2023-05-19T19:00:50.753Z,0.20
2023-05-19T19:03:18.499Z,0.10
2023-05-19T19:05:46.108Z,0.10
2023-05-19T19:08:13.650Z,0.10
2023-05-19T19:10:43.336Z,0.20
2023-05-19T19:13:10.920Z,0.10
2023-05-19T19:15:39.665Z,0.10
2023-05-19T19:18:11.349Z,0.03
2023-05-19T19:20:39.010Z,0.10
2023-05-19T19:23:06.824Z,0.10
2023-05-19T19:25:34.469Z,0.17
2023-05-19T19:28:03.597Z,0.20
2023-05-19T19:30:31.263Z,0.10
2023-05-19T19:32:59.482Z,0.10
2023-05-19T19:35:27.229Z,0.10
2023-05-19T19:37:54.740Z,0.20
2023-05-19T19:40:22.673Z,0.10
2023-05-19T19:42:50.221Z,0.20
2023-05-19T19:45:19.541Z,0.10
2023-05-19T19:47:47.138Z,0.10
2023-05-19T19:50:14.864Z,0.20
2023-05-19T19:52:42.631Z,0.15
2023-05-19T19:55:10.989Z,0.10
2023-05-19T19:57:38.539Z,0.17
2023-05-19T20:00:08.577Z,0.10
2023-05-19T20:02:51.424Z,0.20
2023-05-19T20:05:25.981Z,0.10
2023-05-19T20:07:53.636Z,0.10
2023-05-19T20:10:21.388Z,0.10
2023-05-19T20:12:50.476Z,0.13
2023-05-19T20:15:18.311Z,0.10
2023-05-19T20:17:47.227Z,0.20
2023-05-19T20:20:15.173Z,0.10
2023-05-19T20:22:44.321Z,0.10
2023-05-19T20:25:12.114Z,0.15
2023-05-19T20:27:39.658Z,0.10
2023-05-19T20:30:08.434Z,0.20
2023-05-19T20:32:36.245Z,0.10
2023-05-19T20:35:05.800Z,0.17
2023-05-19T20:37:33.379Z,0.15
2023-05-19T20:40:00.950Z,0.10
2023-05-19T20:42:28.559Z,0.10
2023-05-19T20:44:56.294Z,0.20
2023-05-19T20:47:24.007Z,0.10
2023-05-19T20:49:51.590Z,0.20
2023-05-19T20:52:21.823Z,0.10
2023-05-19T20:54:49.402Z,0.20
2023-05-19T20:57:16.982Z,0.20
2023-05-19T20:59:44.676Z,0.20
2023-05-19T21:02:12.562Z,0.10
2023-05-19T21:04:40.167Z,0.10
2023-05-19T21:07:07.823Z,0.13
2023-05-19T21:09:36.744Z,0.10
2023-05-19T21:12:04.612Z,0.10
2023-05-19T21:14:32.122Z,0.10
2023-05-19T21:16:59.724Z,0.10
2023-05-19T21:19:27.581Z,0.20
2023-05-19T21:21:56.929Z,0.20
2023-05-19T21:24:24.491Z,0.17
2023-05-19T21:26:53.346Z,0.10
2023-05-19T21:29:20.860Z,0.10
2023-05-19T21:31:52.573Z,0.17
2023-05-19T21:34:20.418Z,0.10
2023-05-19T21:36:49.464Z,0.20
2023-05-19T21:39:17.623Z,0.05
2023-05-19T21:41:45.205Z,0.20
2023-05-19T21:44:14.067Z,0.08
2023-05-19T21:46:49.362Z,0.20
2023-05-19T21:49:17.268Z,0.32
2023-05-19T21:51:44.839Z,0.10
2023-05-19T21:54:12.385Z,0.15
2023-05-19T21:56:39.901Z,0.20
2023-05-19T21:59:07.632Z,0.10
2023-05-19T22:01:36.693Z,0.20
2023-05-19T22:04:04.584Z,0.10
2023-05-19T22:06:32.331Z,0.20
2023-05-19T22:09:01.146Z,0.10
2023-05-19T22:11:28.762Z,0.10
2023-05-19T22:13:56.345Z,0.10
2023-05-19T22:16:23.898Z,0.15
2023-05-19T22:18:52.832Z,0.10
2023-05-19T22:21:20.664Z,0.10
2023-05-19T22:23:48.219Z,0.10
2023-05-19T22:26:16.003Z,0.00
2023-05-19T22:28:43.536Z,0.13
2023-05-19T22:31:11.098Z,0.20
2023-05-19T22:33:38.613Z,0.20
2023-05-19T22:36:08.378Z,0.10
2023-05-19T22:38:36.291Z,0.10
2023-05-19T22:41:03.878Z,0.13
2023-05-19T22:43:31.440Z,0.10
2023-05-19T22:45:58.978Z,0.10
2023-05-19T22:48:26.542Z,0.15
2023-05-19T22:50:54.163Z,0.20
2023-05-19T22:53:23.021Z,0.10
2023-05-19T22:55:50.558Z,0.20
2023-05-19T22:58:18.265Z,0.10
2023-05-19T23:00:45.940Z,0.10
2023-05-19T23:03:13.548Z,0.10
2023-05-19T23:05:41.366Z,0.10
2023-05-19T23:08:08.956Z,0.20
2023-05-19T23:10:37.805Z,0.20
2023-05-19T23:13:05.473Z,0.13
2023-05-19T23:15:33.283Z,0.20
2023-05-19T23:18:01.311Z,0.10
2023-05-19T23:20:29.127Z,0.20
2023-05-19T23:22:56.664Z,0.20
2023-05-19T23:25:24.190Z,0.10
2023-05-19T23:27:53.026Z,0.20
2023-05-19T23:30:20.654Z,0.10
2023-05-19T23:32:48.250Z,0.20
2023-05-19T23:35:17.995Z,0.20
2023-05-19T23:37:45.588Z,0.20
2023-05-19T23:40:13.696Z,0.20
2023-05-19T23:42:41.242Z,0.20
2023-05-19T23:45:10.997Z,0.10
2023-05-19T23:47:38.809Z,0.15
2023-05-19T23:50:07.089Z,0.17
2023-05-19T23:52:34.655Z,0.10
2023-05-19T23:55:03.483Z,0.00
2023-05-19T23:57:31.066Z,0.13
2023-05-19T23:59:58.800Z,0.25
